Time;durP1;ratioP1;P1;durP2;ratioP2;P2;SDS_P1;SDS_P2;PMS_P1;PMS_P2;Temp;Humidity;BMP_temperature;BMP_pressure;BME280_temperature;BME280_humidity;BME280_pressure;Samples;Min_cycle;Max_cycle;Signal;HPM_P1;HPM_P2
2023/09/16 00:00:08;;;;;;;8.50;7.60;;;14.20;99.90;;;;;;4850866;29;20734;-90
2023/09/16 00:02:38;;;;;;;10.20;8.60;;;14.10;99.90;;;;;;4835859;29;20048;-91
2023/09/16 00:05:04;;;;;;;9.80;8.68;;;14.10;99.90;;;;;;4882136;29;20062;-91
2023/09/16 00:07:31;;;;;;;10.55;8.60;;;14.10;99.90;;;;;;4866402;29;20080;-91
2023/09/16 00:09:58;;;;;;;9.68;8.32;;;14.10;99.90;;;;;;4851127;29;20048;-90
2023/09/16 00:12:24;;;;;;;8.02;7.22;;;14.00;99.90;;;;;;4850957;29;20048;-91
2023/09/16 00:14:50;;;;;;;8.48;7.13;;;14.00;99.90;;;;;;4866411;29;20041;-91
2023/09/16 00:17:16;;;;;;;8.80;7.90;;;13.90;99.90;;;;;;4851106;29;20417;-92
2023/09/16 00:19:42;;;;;;;10.82;7.63;;;13.90;99.90;;;;;;4881260;29;20099;-91
2023/09/16 00:22:10;;;;;;;8.93;8.02;;;13.90;99.90;;;;;;4851478;29;20098;-91
2023/09/16 00:24:42;;;;;;;9.05;7.78;;;13.90;99.90;;;;;;4851435;29;20045;-92
2023/09/16 00:27:08;;;;;;;9.70;8.38;;;13.80;99.90;;;;;;4863166;29;20113;-92
2023/09/16 00:29:34;;;;;;;8.40;7.53;;;13.80;99.90;;;;;;4850493;29;20477;-92
2023/09/16 00:32:06;;;;;;;7.90;7.10;;;13.70;99.90;;;;;;4840280;29;20041;-92
2023/09/16 00:34:32;;;;;;;8.80;6.38;;;13.70;99.90;;;;;;4833760;29;20428;-92
2023/09/16 00:36:58;;;;;;;6.95;6.25;;;13.60;99.90;;;;;;4868496;29;20536;-92
2023/09/16 00:39:25;;;;;;;7.47;6.50;;;13.50;99.90;;;;;;4869488;29;20087;-92
2023/09/16 00:41:51;;;;;;;7.05;6.35;;;13.50;99.90;;;;;;4866310;29;20579;-92
2023/09/16 00:44:16;;;;;;;6.00;5.40;;;13.50;99.90;;;;;;4850803;29;20123;-93
2023/09/16 00:46:42;;;;;;;5.25;4.75;;;13.50;99.90;;;;;;4851031;29;20089;-91
2023/09/16 00:49:09;;;;;;;5.93;5.38;;;13.40;99.90;;;;;;4850848;29;20048;-93
2023/09/16 00:51:35;;;;;;;11.57;8.07;;;13.40;99.90;;;;;;4866548;29;20087;-93
2023/09/16 00:54:02;;;;;;;8.93;8.02;;;13.40;99.90;;;;;;4836044;29;20045;-92
2023/09/16 00:56:29;;;;;;;8.68;7.78;;;13.40;99.90;;;;;;4863298;29;20044;-91
2023/09/16 00:58:59;;;;;;;9.23;7.75;;;13.50;99.90;;;;;;4852317;29;20049;-90
2023/09/16 01:01:25;;;;;;;13.15;8.77;;;13.50;99.90;;;;;;4848479;29;20057;-89
2023/09/16 01:03:52;;;;;;;4.78;4.28;;;13.50;99.90;;;;;;4849588;29;20112;-90
2023/09/16 01:06:19;;;;;;;4.15;3.55;;;13.50;99.90;;;;;;4865032;29;20112;-91
2023/09/16 01:08:46;;;;;;;6.00;5.40;;;13.40;99.90;;;;;;4856054;29;20043;-92
2023/09/16 01:11:12;;;;;;;4.93;4.45;;;13.30;99.90;;;;;;4865251;29;20135;-91
2023/09/16 01:13:39;;;;;;;6.80;5.03;;;13.30;99.90;;;;;;4866025;29;20036;-91
2023/09/16 01:16:08;;;;;;;5.32;4.82;;;13.40;99.90;;;;;;4884033;29;20091;-90
2023/09/16 01:18:42;;;;;;;3.38;3.08;;;13.30;99.90;;;;;;4868379;29;20053;-90
2023/09/16 01:21:08;;;;;;;3.78;2.90;;;13.30;99.90;;;;;;4883047;29;20044;-92
2023/09/16 01:23:34;;;;;;;5.00;3.20;;;13.30;99.90;;;;;;4852545;29;20112;-91
2023/09/16 01:26:00;;;;;;;4.63;3.03;;;;;;;;;;4841225;29;20045;-91
2023/09/16 01:28:26;;;;;;;3.28;2.97;;;13.10;99.90;;;;;;4860382;29;20040;-91
2023/09/16 01:30:55;;;;;;;3.75;3.35;;;13.00;99.90;;;;;;4866791;29;20107;-91
2023/09/16 01:33:27;;;;;;;4.00;3.60;;;12.90;99.90;;;;;;4882573;29;20505;-90
2023/09/16 01:36:11;;;;;;;5.78;4.78;;;12.90;99.90;;;;;;4861011;29;20088;-90
2023/09/16 01:38:40;;;;;;;7.93;6.32;;;12.90;99.90;;;;;;4856684;29;20045;-90
2023/09/16 01:41:09;;;;;;;6.57;5.50;;;13.00;99.90;;;;;;4875007;29;20047;-92
2023/09/16 01:43:36;;;;;;;9.00;6.88;;;13.00;99.90;;;;;;4866024;29;20051;-91
2023/09/16 01:46:02;;;;;;;;;;;13.00;99.90;;;;;;4852475;29;20173;-91
2023/09/16 01:48:28;;;;;;;7.47;6.78;;;13.10;99.90;;;;;;4848607;29;20010;-91
2023/09/16 01:50:53;;;;;;;4.22;3.83;;;13.10;99.90;;;;;;4851467;29;20047;-91
2023/09/16 01:53:19;;;;;;;6.07;5.28;;;13.10;99.90;;;;;;4836100;29;20052;-91
2023/09/16 01:55:45;;;;;;;8.95;7.60;;;13.10;99.90;;;;;;4867402;29;20048;-89
2023/09/16 01:58:11;;;;;;;10.25;8.75;;;13.10;99.90;;;;;;4882045;29;20055;-92
2023/09/16 02:00:37;;;;;;;10.48;9.38;;;13.20;99.90;;;;;;4852332;29;20623;-90
2023/09/16 02:03:03;;;;;;;10.40;9.25;;;13.20;99.90;;;;;;4863202;29;20065;-91
2023/09/16 02:05:29;;;;;;;7.72;6.80;;;13.20;99.90;;;;;;4867147;29;20051;-91
2023/09/16 02:07:57;;;;;;;9.50;8.57;;;13.20;99.90;;;;;;4865659;29;20048;-90
2023/09/16 02:10:22;;;;;;;10.98;9.05;;;13.20;99.90;;;;;;4850349;29;20037;-91
2023/09/16 02:12:48;;;;;;;9.70;8.55;;;13.20;99.90;;;;;;4841257;29;20037;-91
2023/09/16 02:15:14;;;;;;;8.15;7.35;;;13.30;99.90;;;;;;4840069;29;20101;-91
2023/09/16 02:17:40;;;;;;;5.25;4.75;;;13.50;99.90;;;;;;4839083;29;20448;-91
2023/09/16 02:20:11;;;;;;;4.00;3.15;;;13.20;99.90;;;;;;4837124;29;20083;-91
2023/09/16 02:22:37;;;;;;;4.70;3.38;;;13.20;99.90;;;;;;4852794;29;20044;-91
2023/09/16 02:25:04;;;;;;;4.22;2.92;;;13.10;99.90;;;;;;4868247;29;20100;-91
2023/09/16 02:27:30;;;;;;;3.83;2.95;;;13.00;99.90;;;;;;4850714;29;20110;-91
2023/09/16 02:29:55;;;;;;;4.35;3.50;;;13.00;99.90;;;;;;4865505;29;20072;-91
2023/09/16 02:32:21;;;;;;;4.47;3.78;;;12.90;99.90;;;;;;4851236;29;20086;-91
2023/09/16 02:34:47;;;;;;;4.53;3.38;;;12.90;99.90;;;;;;4867048;29;20040;-90
2023/09/16 02:37:13;;;;;;;3.40;2.95;;;12.90;99.90;;;;;;4838467;29;20044;-91
2023/09/16 02:39:39;;;;;;;3.28;2.97;;;12.90;99.90;;;;;;4821472;29;20052;-91
2023/09/16 02:42:04;;;;;;;4.13;3.30;;;12.90;99.90;;;;;;4833829;29;20049;-91
2023/09/16 02:44:30;;;;;;;5.53;4.03;;;12.80;99.90;;;;;;4851911;29;20048;-92
2023/09/16 02:46:56;;;;;;;4.78;4.28;;;12.80;99.90;;;;;;4857135;29;20049;-91
2023/09/16 02:49:22;;;;;;;5.38;4.50;;;;;;;;;;4833500;29;20056;-91
2023/09/16 02:51:48;;;;;;;6.18;3.95;;;12.70;99.90;;;;;;4834354;29;20124;-91
2023/09/16 02:54:15;;;;;;;4.00;3.60;;;12.80;99.90;;;;;;4851092;29;20048;-91
2023/09/16 02:56:40;;;;;;;4.38;3.50;;;12.60;99.90;;;;;;4851564;29;20037;-92
2023/09/16 02:59:06;;;;;;;4.43;4.03;;;12.50;99.90;;;;;;4898611;29;20404;-92
2023/09/16 03:01:32;;;;;;;4.20;3.80;;;12.50;99.90;;;;;;4885769;29;20135;-91
2023/09/16 03:03:58;;;;;;;5.43;4.05;;;12.50;99.90;;;;;;4854850;29;20485;-92
2023/09/16 03:06:26;;;;;;;7.40;5.47;;;12.50;99.90;;;;;;4870947;29;20047;-93
2023/09/16 03:08:52;;;;;;;6.15;5.25;;;12.50;99.90;;;;;;4886115;29;20054;-92
2023/09/16 03:11:18;;;;;;;5.28;3.60;;;12.60;99.90;;;;;;4858759;29;20048;-91
2023/09/16 03:13:44;;;;;;;3.30;3.00;;;12.50;99.90;;;;;;4833635;29;20041;-92
2023/09/16 03:16:14;;;;;;;3.10;2.72;;;12.50;99.90;;;;;;4833796;29;20469;-92
2023/09/16 03:18:44;;;;;;;3.80;3.40;;;12.50;99.90;;;;;;4845977;29;20048;-91
2023/09/16 03:21:10;;;;;;;3.58;3.05;;;12.50;99.90;;;;;;4848347;29;20045;-92
2023/09/16 03:23:35;;;;;;;4.07;3.17;;;12.40;99.90;;;;;;4865817;29;20096;-92
2023/09/16 03:26:01;;;;;;;4.57;3.38;;;12.50;99.90;;;;;;4848778;29;20049;-92
2023/09/16 03:28:27;;;;;;;3.83;3.10;;;12.50;99.90;;;;;;4850204;29;20404;-91
2023/09/16 03:30:53;;;;;;;2.83;2.20;;;12.50;99.90;;;;;;4836350;29;20049;-91
2023/09/16 03:33:19;;;;;;;2.38;2.13;;;12.50;99.90;;;;;;4836244;29;20041;-91
2023/09/16 03:35:44;;;;;;;2.60;2.10;;;12.40;99.90;;;;;;4836682;29;20049;-92
2023/09/16 03:38:10;;;;;;;2.78;2.45;;;12.40;99.90;;;;;;4852691;29;20056;-91
2023/09/16 03:40:36;;;;;;;2.53;2.15;;;;;;;;;;4868147;29;20044;-91
2023/09/16 03:43:04;;;;;;;2.40;2.10;;;;;;;;;;4852787;29;20047;-91
2023/09/16 03:45:30;;;;;;;2.72;2.45;;;12.20;99.90;;;;;;4852552;29;20040;-92
2023/09/16 03:47:56;;;;;;;4.82;3.10;;;12.30;99.90;;;;;;4836712;29;20085;-93
2023/09/16 03:50:22;;;;;;;5.47;3.50;;;12.30;99.90;;;;;;4837102;29;20068;-92
2023/09/16 03:52:49;;;;;;;6.13;4.70;;;12.30;99.90;;;;;;4837800;29;20385;-92
2023/09/16 03:55:15;;;;;;;4.35;3.92;;;12.30;99.90;;;;;;4851610;29;20393;-93
2023/09/16 03:57:41;;;;;;;8.40;7.50;;;12.30;99.90;;;;;;4851874;29;20049;-93
2023/09/16 04:00:08;;;;;;;6.25;4.60;;;12.30;99.90;;;;;;4851503;29;20480;-92
2023/09/16 04:02:34;;;;;;;3.00;2.65;;;12.40;99.90;;;;;;4866873;29;20100;-92
2023/09/16 04:04:59;;;;;;;12.38;3.58;;;12.30;99.90;;;;;;4851406;29;20442;-92
2023/09/16 04:07:25;;;;;;;4.35;3.58;;;12.20;99.90;;;;;;4851151;29;20077;-92
2023/09/16 04:09:51;;;;;;;11.13;3.15;;;12.10;99.90;;;;;;4851471;29;20104;-93
2023/09/16 04:12:16;;;;;;;4.18;3.67;;;12.10;99.90;;;;;;4851574;29;20524;-92
2023/09/16 04:14:42;;;;;;;3.72;3.42;;;11.90;99.90;;;;;;4851590;29;20082;-92
2023/09/16 04:17:08;;;;;;;3.80;3.40;;;11.90;99.90;;;;;;4851513;29;20076;-93
2023/09/16 04:19:34;;;;;;;3.50;3.20;;;;;;;;;;4851536;29;20044;-93
2023/09/16 04:22:00;;;;;;;5.18;4.68;;;;;;;;;;4851765;29;20048;-92
2023/09/16 04:24:26;;;;;;;5.22;4.72;;;;;;;;;;4852693;29;20073;-93
2023/09/16 04:26:52;;;;;;;7.53;5.75;;;;;;;;;;4851878;29;20083;-94
2023/09/16 04:29:18;;;;;;;6.88;6.22;;;;;;;;;;4851583;29;20108;-92
2023/09/16 04:31:45;;;;;;;9.32;6.97;;;;;;;;;;4866613;29;20043;-93
2023/09/16 04:34:11;;;;;;;7.07;6.38;;;;;;;;;;4854623;29;20072;-92
2023/09/16 04:36:39;;;;;;;6.82;6.18;;;;;;;;;;4855287;29;20128;-92
2023/09/16 04:39:05;;;;;;;6.70;6.05;;;;;;;;;;4855086;29;20049;-93
2023/09/16 04:41:31;;;;;;;6.60;5.95;;;;;;;;;;4870220;29;20489;-91
2023/09/16 04:43:58;;;;;;;5.80;5.20;;;;;;;;;;4854254;29;20056;-92
2023/09/16 04:46:24;;;;;;;7.57;6.88;;;;;;;;;;4864145;29;20488;-91
2023/09/16 04:48:50;;;;;;;5.55;5.05;;;;;;;;;;4869694;29;20049;-92
2023/09/16 04:51:16;;;;;;;3.60;3.10;;;;;;;;;;4854624;29;20462;-92
2023/09/16 04:53:42;;;;;;;3.50;3.20;;;;;;;;;;4870214;29;20076;-92
2023/09/16 04:56:09;;;;;;;2.53;2.33;;;;;;;;;;4854724;29;20041;-93
2023/09/16 04:58:35;;;;;;;5.22;2.78;;;;;;;;;;4870384;29;20564;-92
2023/09/16 05:01:04;;;;;;;3.17;2.88;;;;;;;;;;4870276;29;20064;-92
2023/09/16 05:03:30;;;;;;;3.67;3.35;;;;;;;;;;4869733;29;20055;-93
2023/09/16 05:05:56;;;;;;;4.88;4.38;;;;;;;;;;4854485;29;20045;-94
2023/09/16 05:08:22;;;;;;;4.78;3.90;;;;;;;;;;4854602;29;20111;-93
2023/09/16 05:10:53;;;;;;;4.85;4.35;;;;;;;;;;4854470;29;20047;-93
2023/09/16 05:13:19;;;;;;;4.45;4.05;;;;;;;;;;4869939;29;20051;-94
2023/09/16 05:15:49;;;;;;;4.47;4.07;;;;;;;;;;4854412;29;20131;-93
2023/09/16 05:18:16;;;;;;;5.72;4.93;;;;;;;;;;4854510;29;20132;-93
2023/09/16 05:20:42;;;;;;;5.28;4.53;;;;;;;;;;4854218;29;20048;-93
2023/09/16 05:23:08;;;;;;;4.43;3.97;;;;;;;;;;4853782;29;20080;-93
2023/09/16 05:25:34;;;;;;;6.13;4.43;;;;;;;;;;4854379;29;20051;-94
2023/09/16 05:28:00;;;;;;;6.60;4.72;;;;;;;;;;4854386;29;20131;-93
2023/09/16 05:30:27;;;;;;;6.78;6.15;;;;;;;;;;4854329;29;20043;-94
2023/09/16 05:32:53;;;;;;;7.47;6.10;;;;;;;;;;4869432;29;20044;-94
2023/09/16 05:35:19;;;;;;;6.63;5.93;;;;;;;;;;4854575;29;20083;-94
2023/09/16 05:37:45;;;;;;;5.78;5.05;;;;;;;;;;4870055;29;20044;-94
2023/09/16 05:40:11;;;;;;;6.18;5.60;;;;;;;;;;4855294;29;20121;-93
2023/09/16 05:42:37;;;;;;;6.10;5.50;;;;;;;;;;4854234;29;20377;-93
2023/09/16 05:45:04;;;;;;;6.65;6.05;;;;;;;;;;4854177;29;20052;-92
2023/09/16 05:47:30;;;;;;;7.43;6.72;;;;;;;;;;4884788;29;20040;-92
2023/09/16 05:49:57;;;;;;;9.85;8.95;;;;;;;;;;4849385;29;20041;-91
2023/09/16 05:52:24;;;;;;;10.02;8.98;;;;;;;;;;4855640;29;20169;-92
2023/09/16 05:54:50;;;;;;;12.30;11.05;;;;;;;;;;4848697;29;20041;-92
2023/09/16 05:57:15;;;;;;;13.27;11.98;;;12.70;99.90;;;;;;4866985;29;20100;-90
2023/09/16 05:59:41;;;;;;;11.77;10.57;;;12.90;99.90;;;;;;4843597;29;20056;-90
2023/09/16 06:02:07;;;;;;;11.52;9.90;;;12.90;99.90;;;;;;4838478;29;20052;-91
2023/09/16 06:04:33;;;;;;;11.55;10.43;;;12.60;99.90;;;;;;4834096;29;20053;-88
2023/09/16 06:06:58;;;;;;;12.80;11.48;;;13.00;99.90;;;;;;4849497;29;20048;-88
2023/09/16 06:09:24;;;;;;;13.20;11.88;;;13.10;99.90;;;;;;4849317;29;20045;-91
2023/09/16 06:11:50;;;;;;;13.10;11.85;;;13.10;99.90;;;;;;4845972;29;20112;-90
2023/09/16 06:14:16;;;;;;;12.02;10.85;;;13.10;99.90;;;;;;4836954;29;20037;-90
2023/09/16 06:16:42;;;;;;;13.30;11.20;;;;;;;;;;4837146;29;20478;-89
2023/09/16 06:19:08;;;;;;;13.18;11.77;;;13.30;99.90;;;;;;4848209;29;20131;-89
2023/09/16 06:21:34;;;;;;;13.27;11.63;;;13.30;99.90;;;;;;4836447;29;20128;-89
2023/09/16 06:23:59;;;;;;;12.70;11.50;;;13.30;99.90;;;;;;4846753;29;20067;-88
2023/09/16 06:26:25;;;;;;;13.15;11.75;;;12.90;99.90;;;;;;4832991;29;20119;-89
2023/09/16 06:28:51;;;;;;;12.18;10.98;;;13.40;99.90;;;;;;4846838;29;20040;-90
2023/09/16 06:31:17;;;;;;;13.77;11.93;;;13.50;99.90;;;;;;4850726;29;20047;-89
2023/09/16 06:33:43;;;;;;;14.90;12.73;;;13.60;99.90;;;;;;4847297;29;20040;-89
2023/09/16 06:36:09;;;;;;;13.05;11.73;;;13.70;99.90;;;;;;4848403;29;20184;-90
2023/09/16 06:38:35;;;;;;;14.20;12.68;;;13.70;99.90;;;;;;4854178;29;20184;-89
2023/09/16 06:41:01;;;;;;;13.13;11.50;;;14.00;99.90;;;;;;4849743;29;20139;-88
2023/09/16 06:43:26;;;;;;;14.73;13.30;;;14.10;99.90;;;;;;4848502;29;20048;-88
2023/09/16 06:45:52;;;;;;;13.90;12.48;;;14.30;99.90;;;;;;4851889;29;20045;-90
2023/09/16 06:48:18;;;;;;;13.15;11.80;;;14.40;99.90;;;;;;4850828;29;20108;-92
2023/09/16 06:50:44;;;;;;;14.13;12.18;;;14.50;99.90;;;;;;4845759;29;20063;-88
2023/09/16 06:53:10;;;;;;;12.10;10.98;;;14.50;99.90;;;;;;4847653;29;20489;-90
2023/09/16 06:55:35;;;;;;;11.60;10.60;;;14.70;99.90;;;;;;4832420;29;20074;-88
2023/09/16 06:58:04;;;;;;;12.70;11.40;;;14.80;99.90;;;;;;4834371;29;20796;-90
2023/09/16 07:00:30;;;;;;;12.27;11.07;;;15.00;99.90;;;;;;4833804;29;20052;-89
2023/09/16 07:02:59;;;;;;;12.18;11.05;;;;;;;;;;4864150;29;20044;-91
2023/09/16 07:05:28;;;;;;;12.05;9.90;;;15.40;99.90;;;;;;4866363;29;20064;-89
2023/09/16 07:07:54;;;;;;;12.35;11.07;;;15.60;99.90;;;;;;4862827;29;20044;-88
2023/09/16 07:10:21;;;;;;;11.10;9.85;;;16.00;99.90;;;;;;4834978;29;20055;-89
2023/09/16 07:12:46;;;;;;;12.98;10.85;;;16.40;99.90;;;;;;4847089;29;20108;-88
2023/09/16 07:15:12;;;;;;;11.40;9.57;;;17.00;99.90;;;;;;4875029;29;20039;-89
2023/09/16 07:17:38;;;;;;;10.25;9.25;;;17.20;99.90;;;;;;4830812;29;20049;-89
2023/09/16 07:20:04;;;;;;;11.43;10.23;;;17.50;99.90;;;;;;4881250;29;20448;-88
2023/09/16 07:22:30;;;;;;;11.57;10.25;;;17.70;99.90;;;;;;4842908;29;20093;-88
2023/09/16 07:24:56;;;;;;;11.38;9.73;;;18.10;99.90;;;;;;4862010;29;20040;-87
2023/09/16 07:27:22;;;;;;;12.50;10.23;;;18.30;99.90;;;;;;4859620;29;20033;-87
2023/09/16 07:29:48;;;;;;;10.82;9.73;;;18.50;99.90;;;;;;4862596;29;20512;-86
2023/09/16 07:32:13;;;;;;;10.38;8.27;;;18.80;99.90;;;;;;4877106;29;20044;-85
2023/09/16 07:34:39;;;;;;;10.13;9.00;;;18.80;99.90;;;;;;4858762;29;20045;-86
2023/09/16 07:37:05;;;;;;;10.65;9.60;;;18.90;99.90;;;;;;4842172;29;20051;-87
2023/09/16 07:39:31;;;;;;;10.45;9.43;;;18.80;99.90;;;;;;4850555;29;20032;-88
2023/09/16 07:41:58;;;;;;;10.02;9.02;;;18.70;99.90;;;;;;4847385;29;20044;-88
2023/09/16 07:44:23;;;;;;;11.00;10.00;;;18.60;99.90;;;;;;4835113;29;20048;-89
2023/09/16 07:46:49;;;;;;;10.32;9.23;;;18.70;99.90;;;;;;4857492;29;20044;-89
2023/09/16 07:49:15;;;;;;;8.75;7.95;;;19.20;99.90;;;;;;4859804;29;20045;-87
2023/09/16 07:51:42;;;;;;;10.80;8.80;;;19.80;99.90;;;;;;4845154;29;20051;-89
2023/09/16 07:54:08;;;;;;;9.82;8.82;;;20.70;99.90;;;;;;4846835;29;20468;-89
2023/09/16 07:56:34;;;;;;;10.65;8.38;;;21.00;99.90;;;;;;4852452;29;20051;-88
2023/09/16 07:58:59;;;;;;;8.27;7.47;;;21.20;99.90;;;;;;4852033;29;20055;-89
2023/09/16 08:01:25;;;;;;;8.82;7.95;;;21.50;99.90;;;;;;4857122;29;20045;-89
2023/09/16 08:03:51;;;;;;;8.63;7.82;;;21.60;99.90;;;;;;4831859;29;20144;-89
2023/09/16 08:06:17;;;;;;;9.02;8.20;;;22.10;99.90;;;;;;4844519;29;20091;-88
2023/09/16 08:08:42;;;;;;;8.27;7.50;;;22.90;99.90;;;;;;4836249;29;20044;-86
2023/09/16 08:11:08;;;;;;;10.05;8.45;;;23.50;99.90;;;;;;4849852;29;20052;-87
2023/09/16 08:13:34;;;;;;;10.07;8.35;;;;;;;;;;4866407;29;20500;-88
2023/09/16 08:16:00;;;;;;;8.17;7.33;;;24.50;99.90;;;;;;4863848;29;20096;-87
2023/09/16 08:18:26;;;;;;;7.82;7.03;;;24.70;99.90;;;;;;4851066;29;20051;-87
2023/09/16 08:20:51;;;;;;;7.60;6.90;;;24.80;99.90;;;;;;4834757;29;20053;-88
2023/09/16 08:23:18;;;;;;;7.53;6.70;;;;;;;;;;4834803;29;20487;-86
2023/09/16 08:25:45;;;;;;;8.83;7.93;;;25.10;99.90;;;;;;4863459;29;20049;-89
2023/09/16 08:28:11;;;;;;;7.20;6.50;;;25.10;99.90;;;;;;4869811;29;21240;-86
2023/09/16 08:30:37;;;;;;;7.38;6.78;;;25.20;99.90;;;;;;4864474;29;20109;-89
2023/09/16 08:33:02;;;;;;;8.37;7.57;;;24.90;99.90;;;;;;4863062;29;20060;-86
2023/09/16 08:35:28;;;;;;;9.02;7.18;;;24.70;99.90;;;;;;4844586;29;20040;-88
2023/09/16 08:37:54;;;;;;;6.60;6.00;;;24.40;99.90;;;;;;4850109;29;20033;-92
2023/09/16 08:40:22;;;;;;;7.57;6.72;;;24.10;99.90;;;;;;4854319;29;20048;-90
2023/09/16 08:43:03;;;;;;;7.95;7.15;;;23.50;99.90;;;;;;4867009;29;20041;-90
2023/09/16 08:45:32;;;;;;;8.50;7.47;;;22.90;99.90;;;;;;4868183;29;20036;-91
2023/09/16 08:48:02;;;;;;;8.23;7.43;;;22.40;99.90;;;;;;4854266;29;20381;-91
2023/09/16 08:50:30;;;;;;;8.70;7.90;;;22.00;99.90;;;;;;4900971;29;20131;-92
2023/09/16 08:53:02;;;;;;;8.70;7.90;;;21.60;99.90;;;;;;4886285;29;20380;-92
2023/09/16 08:55:28;;;;;;;8.45;7.65;;;21.30;99.90;;;;;;4885784;29;20040;-93
2023/09/16 08:58:05;;;;;;;9.65;7.78;;;21.00;99.90;;;;;;4885791;29;20485;-92
2023/09/16 09:00:31;;;;;;;8.30;7.50;;;20.90;99.90;;;;;;4885684;29;20079;-93
2023/09/16 09:02:56;;;;;;;8.93;8.02;;;20.90;99.90;;;;;;4870037;29;20055;-92
2023/09/16 09:05:26;;;;;;;8.60;7.70;;;21.00;99.90;;;;;;4867674;29;20127;-91
2023/09/16 09:07:52;;;;;;;8.38;7.53;;;21.00;99.90;;;;;;4852300;29;20045;-91
2023/09/16 09:10:18;;;;;;;8.00;7.22;;;21.00;99.90;;;;;;4853940;29;20603;-90
2023/09/16 09:12:47;;;;;;;8.15;6.95;;;21.10;99.90;;;;;;4870561;29;20040;-92
2023/09/16 09:15:58;;;;;;;8.05;7.25;;;21.20;99.90;;;;;;4853920;29;20037;-90
2023/09/16 09:18:26;;;;;;;7.63;6.93;;;21.20;99.90;;;;;;4861209;29;20671;-91
2023/09/16 09:20:52;;;;;;;8.85;7.10;;;21.40;99.90;;;;;;4842437;29;20048;-89
2023/09/16 09:23:18;;;;;;;8.63;7.65;;;21.40;99.90;;;;;;4852692;29;20772;-90
2023/09/16 09:25:44;;;;;;;6.95;6.25;;;21.50;99.90;;;;;;4847101;29;20052;-88
2023/09/16 09:28:11;;;;;;;9.45;6.90;;;21.60;99.90;;;;;;4846441;29;20576;-89
2023/09/16 09:30:39;;;;;;;7.38;6.57;;;21.70;99.90;;;;;;4869637;29;20045;-90
2023/09/16 09:33:05;;;;;;;8.23;6.68;;;21.80;99.90;;;;;;4849998;29;20063;-89
2023/09/16 09:35:31;;;;;;;6.80;6.20;;;21.90;99.90;;;;;;4835593;29;20045;-90
2023/09/16 09:37:58;;;;;;;6.43;5.78;;;22.00;99.90;;;;;;4839652;29;20037;-91
2023/09/16 09:40:24;;;;;;;6.30;5.68;;;22.20;99.90;;;;;;4846058;29;20415;-90
2023/09/16 09:42:52;;;;;;;6.70;6.00;;;22.20;99.90;;;;;;4862266;29;20039;-92
2023/09/16 09:45:20;;;;;;;5.93;5.32;;;22.20;99.90;;;;;;4864061;29;20052;-89
2023/09/16 09:47:47;;;;;;;6.60;6.00;;;22.30;99.90;;;;;;4848303;29;20457;-92
2023/09/16 09:50:15;;;;;;;6.15;5.30;;;22.40;99.90;;;;;;4865534;29;20052;-90
2023/09/16 09:53:02;;;;;;;7.90;5.28;;;22.40;99.90;;;;;;4866797;29;20048;-91
2023/09/16 09:55:29;;;;;;;6.10;4.60;;;22.50;99.90;;;;;;4860420;29;20652;-91
2023/09/16 09:57:55;;;;;;;7.38;5.03;;;22.60;99.90;;;;;;4882732;29;20052;-90
2023/09/16 10:00:22;;;;;;;6.10;4.50;;;22.70;99.90;;;;;;4850248;29;20722;-92
2023/09/16 10:02:49;;;;;;;7.13;5.18;;;22.90;99.90;;;;;;4878784;29;20044;-94
2023/09/16 10:05:18;;;;;;;5.72;4.78;;;23.00;99.90;;;;;;4858169;29;20052;-91
2023/09/16 10:07:44;;;;;;;6.05;4.60;;;23.10;99.90;;;;;;4871866;29;20044;-89
2023/09/16 10:10:24;;;;;;;6.13;4.53;;;23.20;99.90;;;;;;4835758;29;20123;-90
2023/09/16 10:12:57;;;;;;;5.55;4.28;;;23.40;99.90;;;;;;4864039;29;20534;-91
2023/09/16 10:15:28;;;;;;;5.63;4.57;;;23.40;99.90;;;;;;4859936;29;20121;-91
2023/09/16 10:17:56;;;;;;;6.53;4.43;;;23.40;99.90;;;;;;4863428;29;20068;-92
2023/09/16 10:20:22;;;;;;;4.72;4.22;;;23.30;99.90;;;;;;4865965;29;20040;-91
2023/09/16 10:22:48;;;;;;;4.88;4.00;;;23.40;99.90;;;;;;4847475;29;20047;-92
2023/09/16 10:25:17;;;;;;;5.55;4.18;;;23.30;99.90;;;;;;4876597;29;20041;-91
2023/09/16 10:28:01;;;;;;;3.88;3.38;;;23.40;99.90;;;;;;4859187;29;20040;-92
2023/09/16 10:30:28;;;;;;;3.85;3.45;;;23.40;99.90;;;;;;4848890;29;20041;-90
2023/09/16 10:32:54;;;;;;;4.22;3.47;;;23.40;99.90;;;;;;4848716;29;20097;-90
2023/09/16 10:35:20;;;;;;;;;;;23.40;99.90;;;;;;4861089;29;20049;-92
2023/09/16 10:37:50;;;;;;;5.80;3.63;;;23.30;99.90;;;;;;4865364;29;19931;-93
2023/09/16 10:40:17;;;;;;;5.07;3.78;;;23.40;99.90;;;;;;4861777;29;20045;-92
2023/09/16 10:42:45;;;;;;;4.05;3.08;;;23.40;99.90;;;;;;4849445;29;20036;-92
2023/09/16 10:45:13;;;;;;;4.07;2.90;;;23.40;99.90;;;;;;4860168;29;20048;-90
2023/09/16 10:47:39;;;;;;;5.88;3.30;;;23.60;99.90;;;;;;4873682;29;20104;-93
2023/09/16 10:50:05;;;;;;;4.35;3.13;;;23.70;99.90;;;;;;4838440;29;20045;-91
2023/09/16 10:52:43;;;;;;;4.93;3.40;;;23.80;99.90;;;;;;4847368;29;20099;-92
2023/09/16 10:55:29;;;;;;;4.93;4.43;;;23.80;99.90;;;;;;4858643;29;20041;-93
2023/09/16 10:58:03;;;;;;;4.25;3.83;;;23.70;99.90;;;;;;4871891;29;20124;-91
2023/09/16 11:00:37;;;;;;;4.38;3.17;;;23.70;99.90;;;;;;4882119;29;20040;-92
2023/09/16 11:03:05;;;;;;;3.83;3.08;;;23.60;99.90;;;;;;4862183;29;20043;-93
2023/09/16 11:05:35;;;;;;;4.85;3.15;;;23.70;99.90;;;;;;4843936;29;20516;-93
2023/09/16 11:08:01;;;;;;;3.30;2.90;;;23.70;99.90;;;;;;4863310;29;20036;-93
2023/09/16 11:10:27;;;;;;;4.38;3.13;;;23.70;99.90;;;;;;4864734;29;20040;-93
2023/09/16 11:12:55;;;;;;;3.03;2.72;;;23.70;99.90;;;;;;4867536;29;20104;-92
2023/09/16 11:15:20;;;;;;;4.05;2.28;;;23.70;99.90;;;;;;4861765;29;20041;-92
2023/09/16 11:17:47;;;;;;;2.90;2.50;;;23.80;99.90;;;;;;4833364;29;20045;-93
2023/09/16 11:20:21;;;;;;;4.32;3.13;;;23.80;99.90;;;;;;4835122;29;20047;-93
2023/09/16 11:22:50;;;;;;;4.00;3.28;;;23.80;99.90;;;;;;4832762;29;20041;-91
2023/09/16 11:25:16;;;;;;;3.83;2.95;;;23.80;99.90;;;;;;4864019;29;20084;-92
2023/09/16 11:27:44;;;;;;;3.13;2.42;;;23.80;99.90;;;;;;4836933;29;20045;-91
2023/09/16 11:30:14;;;;;;;3.50;2.65;;;23.90;99.90;;;;;;4857299;29;20088;-94
2023/09/16 11:33:08;;;;;;;4.05;3.10;;;24.00;99.90;;;;;;4862679;29;20057;-92
2023/09/16 11:35:37;;;;;;;5.20;2.88;;;24.00;99.90;;;;;;4867343;29;20824;-92
2023/09/16 11:38:03;;;;;;;5.28;3.38;;;24.00;99.90;;;;;;4867711;29;20105;-92
2023/09/16 11:40:32;;;;;;;5.27;3.03;;;24.10;99.90;;;;;;4851201;29;20048;-94
2023/09/16 11:42:59;;;;;;;4.63;3.72;;;24.10;99.90;;;;;;4866913;29;20041;-95
2023/09/16 11:45:25;;;;;;;;;;;24.10;99.90;;;;;;4864678;29;20037;-92
2023/09/16 11:47:51;;;;;;;5.22;3.47;;;23.90;99.90;;;;;;4863957;29;19926;-93
2023/09/16 11:50:53;;;;;;;4.07;3.55;;;23.80;99.90;;;;;;4833892;29;20037;-92
2023/09/16 11:53:19;;;;;;;3.33;2.72;;;23.80;99.90;;;;;;4873015;29;20207;-92
2023/09/16 11:55:46;;;;;;;3.20;2.67;;;23.80;99.90;;;;;;4848109;29;20128;-92
2023/09/16 11:58:11;;;;;;;;;;;23.70;99.90;;;;;;4861039;29;20059;-93
2023/09/16 12:00:37;;;;;;;5.18;2.80;;;23.60;99.90;;;;;;4845764;29;19919;-92
2023/09/16 12:03:05;;;;;;;4.33;2.40;;;23.60;99.90;;;;;;4844605;29;20037;-92
2023/09/16 12:05:30;;;;;;;3.95;2.40;;;23.50;99.90;;;;;;4847203;29;20562;-92
2023/09/16 12:07:56;;;;;;;3.40;2.63;;;23.40;99.90;;;;;;4836107;29;20052;-93
2023/09/16 12:10:23;;;;;;;30.77;6.30;;;23.30;99.90;;;;;;4850491;29;20609;-93
2023/09/16 12:12:51;;;;;;;5.70;2.80;;;23.30;99.90;;;;;;4851674;29;20073;-92
2023/09/16 12:15:17;;;;;;;6.00;3.17;;;23.40;99.90;;;;;;4866266;29;20675;-91
2023/09/16 12:17:43;;;;;;;4.47;2.78;;;23.40;99.90;;;;;;4858087;29;20045;-88
2023/09/16 12:20:10;;;;;;;5.10;2.40;;;23.40;99.90;;;;;;4859424;29;20041;-92
2023/09/16 12:22:35;;;;;;;3.53;2.45;;;23.40;99.90;;;;;;4835277;29;20044;-90
2023/09/16 12:25:02;;;;;;;2.53;1.80;;;23.40;99.90;;;;;;4837560;29;20112;-92
2023/09/16 12:27:28;;;;;;;;;;;23.40;99.90;;;;;;4852583;29;20049;-91
2023/09/16 12:29:54;;;;;;;4.35;2.25;;;23.30;99.90;;;;;;4847274;29;19924;-90
2023/09/16 12:32:21;;;;;;;5.32;2.38;;;23.30;99.90;;;;;;4845983;29;20099;-91
2023/09/16 12:35:16;;;;;;;;;;;23.30;99.90;;;;;;4857142;29;20060;-89
2023/09/16 12:37:42;;;;;;;3.85;2.60;;;23.30;99.90;;;;;;4849694;29;20323;-89
2023/09/16 12:40:08;;;;;;;2.90;2.40;;;23.30;99.90;;;;;;4829658;29;20045;-89
2023/09/16 12:42:35;;;;;;;2.95;2.53;;;23.40;99.90;;;;;;4847515;29;20477;-94
2023/09/16 12:45:02;;;;;;;4.95;2.60;;;23.40;99.90;;;;;;4848958;29;20049;-95
2023/09/16 12:47:28;;;;;;;4.43;2.78;;;23.40;99.90;;;;;;4865651;29;20150;-92
2023/09/16 12:49:54;;;;;;;3.30;2.85;;;23.50;99.90;;;;;;4837574;29;20123;-92
2023/09/16 12:52:20;;;;;;;4.13;2.73;;;23.90;99.90;;;;;;4834566;29;20097;-92
2023/09/16 12:54:46;;;;;;;4.70;2.67;;;23.70;99.90;;;;;;4852172;29;20053;-92
2023/09/16 12:57:13;;;;;;;4.70;2.55;;;23.80;99.90;;;;;;4854358;29;20153;-93
2023/09/16 12:59:56;;;;;;;3.95;2.95;;;23.80;99.90;;;;;;4850528;29;20052;-92